Pittsburgh, Pennsylvania
Traffic Map
Current Weather Conditions
Pittsburgh, Pennsylvania
Clear
Clear
69°
Feels Like: 69°
Wind Chill: 69° Ceiling: Unl
Heat Index: 69° Visibility: 10mi
Dew Point: 22° Wind: 9mph
Humidity: 17% Direction: 160° (SSE)
Pressure: 30.28in Gusts: 17mph
Raw Report DataKAGC 201753Z AUTO 16008G15KT 120V190 10SM CLR 21/M06 A3028 RMK AO2 SLP256 T02061056 10206 20089 57019 TSNO $
Traffic Incident Summary
Active as of:
Severity:
Category:
InformationThere was an issue retrieving the traffic information for this location. Please try a different location or try again shortly.
Advertisements
At Last! Intellicast now available for iPhone and Android